Time;durP1;ratioP1;P1;durP2;ratioP2;P2;SDS_P1;SDS_P2;PMS_P1;PMS_P2;Temp;Humidity;BMP_temperature;BMP_pressure;BME280_temperature;BME280_humidity;BME280_pressure;Samples;Min_cycle;Max_cycle;Signal;HPM_P1;HPM_P2
2023/11/02 00:00:55;;;;;;;23.77;15.75;;;;;;;;;;5111698;28;20032;-55
2023/11/02 00:03:29;;;;;;;16.83;12.20;;;;;;;;;;5068700;28;20609;-55
2023/11/02 00:06:15;;;;;;;20.10;12.20;;;;;;;;;;5068256;28;20044;-55
2023/11/02 00:08:41;;;;;;;14.65;10.05;;;;;;;;;;5049499;28;20570;-55
2023/11/02 00:11:08;;;;;;;15.80;10.73;;;;;;;;;;5035788;28;20149;-55
2023/11/02 00:13:34;;;;;;;14.50;9.63;;;;;;;;;;5052258;28;20048;-55
2023/11/02 00:16:02;;;;;;;17.10;10.05;;;;;;;;;;5018971;28;20566;-55
2023/11/02 00:18:33;;;;;;;14.43;8.90;;;;;;;;;;5052256;28;20141;-55
2023/11/02 00:20:59;;;;;;;15.15;8.30;;;;;;;;;;5052291;28;20039;-56
2023/11/02 00:23:37;;;;;;;22.83;9.75;;;;;;;;;;5052243;28;20033;-56
2023/11/02 00:26:03;;;;;;;15.73;10.02;;;;;;;;;;5045967;28;20428;-54
2023/11/02 00:28:31;;;;;;;17.60;9.50;;;;;;;;;;5032138;28;20107;-55
2023/11/02 00:30:58;;;;;;;16.77;9.30;;;;;;;;;;5032232;28;20599;-55
2023/11/02 00:33:24;;;;;;;18.40;11.32;;;;;;;;;;5036469;28;20120;-55
2023/11/02 00:35:54;;;;;;;20.95;13.25;;;;;;;;;;5055081;28;20029;-56
2023/11/02 00:38:21;;;;;;;19.05;12.13;;;;;;;;;;5071836;28;20041;-55
2023/11/02 00:40:47;;;;;;;18.92;12.93;;;;;;;;;;5093721;28;20036;-56
2023/11/02 00:43:14;;;;;;;22.55;12.50;;;;;;;;;;5094458;28;20028;-55
2023/11/02 00:45:44;;;;;;;22.10;13.70;;;;;;;;;;5094880;28;20039;-55
2023/11/02 00:48:30;;;;;;;22.95;14.60;;;;;;;;;;5094321;28;20548;-55
2023/11/02 00:51:04;;;;;;;27.13;16.75;;;;;;;;;;5094070;28;20470;-55
2023/11/02 00:53:30;;;;;;;27.00;16.33;;;;;;;;;;5094295;28;20107;-55
2023/11/02 00:55:57;;;;;;;18.60;11.75;;;;;;;;;;5094086;28;20039;-55
2023/11/02 00:58:28;;;;;;;22.30;12.70;;;;;;;;;;5094142;28;20036;-55
2023/11/02 01:00:54;;;;;;;19.03;12.17;;;;;;;;;;5094117;28;20032;-55
2023/11/02 01:03:21;;;;;;;19.75;11.38;;;;;;;;;;5094055;28;20743;-56
2023/11/02 01:05:47;;;;;;;18.33;13.05;;;;;;;;;;5093982;28;20705;-55
2023/11/02 01:08:14;;;;;;;19.08;11.68;;;14.40;99.90;;;;;;5094073;28;20043;-55
2023/11/02 01:10:43;;;;;;;24.05;12.68;;;14.30;99.90;;;;;;5093905;28;20028;-55
2023/11/02 01:13:14;;;;;;;17.20;9.75;;;14.20;99.90;;;;;;5093687;28;20520;-55
2023/11/02 01:15:43;;;;;;;14.05;10.35;;;;;;;;;;5093961;28;20036;-55
2023/11/02 01:18:10;;;;;;;12.75;9.57;;;;;;;;;;5091419;28;20043;-55
2023/11/02 01:20:39;;;;;;;14.25;9.40;;;;;;;;;;5093524;28;20024;-55
2023/11/02 01:23:23;;;;;;;11.82;8.27;;;;;;;;;;5093708;28;20060;-55
2023/11/02 01:25:49;;;;;;;12.38;8.38;;;12.40;99.90;;;;;;5093687;28;20036;-56
2023/11/02 01:28:19;;;;;;;13.02;8.65;;;12.30;99.90;;;;;;5093642;28;20030;-56
2023/11/02 01:30:48;;;;;;;13.50;9.77;;;;;;;;;;5093446;28;20390;-55
2023/11/02 01:33:33;;;;;;;14.73;9.77;;;;;;;;;;5093623;28;20107;-55
2023/11/02 01:35:59;;;;;;;13.27;9.60;;;13.40;99.90;;;;;;5093415;28;20067;-55
2023/11/02 01:38:27;;;;;;;13.02;8.65;;;13.60;99.90;;;;;;5093566;28;20115;-55
2023/11/02 01:41:26;;;;;;;14.23;9.52;;;13.70;99.90;;;;;;5093700;28;20032;-56
2023/11/02 01:44:16;;;;;;;15.50;9.93;;;11.40;99.90;;;;;;5093289;28;20072;-56
2023/11/02 01:47:01;;;;;;;18.88;11.18;;;13.80;99.90;;;;;;5093287;28;20043;-55
2023/11/02 01:49:46;;;;;;;14.95;11.25;;;13.90;99.90;;;;;;5093308;28;20031;-55
2023/11/02 01:52:53;;;;;;;14.70;10.00;;;14.00;99.90;;;;;;5093104;28;20028;-55
2023/11/02 01:55:38;;;;;;;17.67;11.93;;;14.00;99.90;;;;;;5030667;28;20039;-55
2023/11/02 01:58:19;;;;;;;18.35;12.98;;;14.00;99.90;;;;;;5090792;28;20505;-55
2023/11/02 02:01:30;;;;;;;17.60;12.25;;;14.10;99.90;;;;;;5093038;28;20028;-56
2023/11/02 02:04:02;;;;;;;20.20;11.70;;;14.10;99.90;;;;;;5079734;28;20044;-55
2023/11/02 02:06:31;;;;;;;14.25;10.75;;;14.10;99.90;;;;;;5092730;28;20048;-56
2023/11/02 02:09:02;;;;;;;23.05;12.07;;;13.90;99.90;;;;;;5092814;28;20098;-55
2023/11/02 02:11:57;;;;;;;20.10;14.07;;;14.00;99.90;;;;;;5092941;28;20040;-55
2023/11/02 02:14:41;;;;;;;17.48;11.85;;;13.80;99.90;;;;;;5070260;28;20040;-55
2023/11/02 02:17:16;;;;;;;15.18;11.07;;;13.90;99.90;;;;;;5092796;28;20032;-55
2023/11/02 02:19:51;;;;;;;16.55;10.90;;;14.00;99.90;;;;;;5092842;28;20459;-55
2023/11/02 02:22:47;;;;;;;15.52;11.15;;;14.10;99.90;;;;;;5092860;28;20038;-54
2023/11/02 02:25:42;;;;;;;15.18;11.38;;;14.20;99.90;;;;;;5092633;28;20042;-54
2023/11/02 02:28:16;;;;;;;16.83;10.93;;;14.60;99.90;;;;;;5069993;28;20055;-54
2023/11/02 02:31:14;;;;;;;14.82;9.60;;;14.20;99.90;;;;;;5090008;28;20047;-55
2023/11/02 02:33:54;;;;;;;14.65;9.77;;;13.70;99.90;;;;;;5074883;28;20048;-55
2023/11/02 02:36:38;;;;;;;15.75;10.05;;;14.00;99.90;;;;;;5073237;28;20063;-55
2023/11/02 02:39:05;;;;;;;16.45;9.63;;;14.80;99.90;;;;;;5092684;28;20028;-55
2023/11/02 02:41:38;;;;;;;15.77;10.82;;;14.20;99.90;;;;;;5092564;28;20031;-55
2023/11/02 02:44:06;;;;;;;16.40;10.27;;;14.40;99.90;;;;;;5092329;28;20035;-55
2023/11/02 02:46:34;;;;;;;15.15;10.25;;;14.20;99.90;;;;;;5092173;28;20050;-55
2023/11/02 02:48:59;;;;;;;13.65;9.98;;;14.10;99.90;;;;;;5092391;28;20024;-55
2023/11/02 02:51:29;;;;;;;22.33;10.55;;;13.60;99.90;;;;;;5092261;28;20072;-55
2023/11/02 02:53:59;;;;;;;14.88;10.38;;;13.90;99.90;;;;;;5092208;28;20036;-55
2023/11/02 02:56:25;;;;;;;13.98;9.95;;;13.60;99.90;;;;;;5090046;28;20044;-55
2023/11/02 02:59:01;;;;;;;13.68;10.07;;;13.00;99.90;;;;;;5090197;28;20032;-55
2023/11/02 03:01:36;;;;;;;13.82;10.02;;;13.30;99.90;;;;;;5092299;28;20467;-54
2023/11/02 03:04:03;;;;;;;12.15;9.27;;;13.40;99.90;;;;;;5092313;28;20032;-55
2023/11/02 03:06:31;;;;;;;14.23;9.25;;;13.60;99.90;;;;;;5091819;28;20050;-55
2023/11/02 03:09:00;;;;;;;14.27;9.40;;;12.80;99.90;;;;;;5091993;28;20491;-55
2023/11/02 03:11:27;;;;;;;15.32;10.10;;;13.70;99.90;;;;;;5072971;28;20437;-54
2023/11/02 03:13:55;;;;;;;14.20;9.88;;;13.70;99.90;;;;;;5089929;28;20403;-55
2023/11/02 03:16:23;;;;;;;16.73;11.18;;;13.40;99.90;;;;;;5023572;28;20054;-55
2023/11/02 03:18:49;;;;;;;12.95;8.95;;;13.60;99.90;;;;;;5056163;28;20040;-55
2023/11/02 03:21:15;;;;;;;11.77;8.75;;;13.50;99.90;;;;;;5091975;28;20498;-55
2023/11/02 03:23:49;;;;;;;12.02;8.85;;;13.50;99.90;;;;;;5091763;28;20417;-55
2023/11/02 03:26:24;;;;;;;11.80;8.77;;;13.40;99.90;;;;;;5091798;28;20479;-55
2023/11/02 03:29:26;;;;;;;10.23;7.25;;;12.90;99.90;;;;;;5091831;28;20039;-55
2023/11/02 03:32:06;;;;;;;10.10;7.50;;;13.00;99.90;;;;;;5091823;28;20055;-55
2023/11/02 03:34:51;;;;;;;13.73;8.63;;;13.30;99.90;;;;;;5091697;28;20114;-56
2023/11/02 03:37:28;;;;;;;11.27;7.80;;;;;;;;;;5091794;28;20107;-55
2023/11/02 03:40:05;;;;;;;15.90;11.63;;;;;;;;;;5091757;28;20028;-54
2023/11/02 03:42:38;;;;;;;12.57;8.75;;;;;;;;;;5092502;28;20032;-55
2023/11/02 03:45:10;;;;;;;12.15;8.43;;;;;;;;;;5095742;28;20089;-55
2023/11/02 03:47:57;;;;;;;17.13;9.82;;;;;;;;;;5076413;28;20105;-55
2023/11/02 03:50:42;;;;;;;11.63;9.07;;;;;;;;;;5095652;28;20043;-55
2023/11/02 03:53:14;;;;;;;15.65;13.32;;;13.10;99.90;;;;;;5096053;28;20580;-54
2023/11/02 03:56:13;;;;;;;11.70;7.45;;;13.10;99.90;;;;;;5095765;28;20425;-55
2023/11/02 03:58:49;;;;;;;11.38;7.85;;;12.40;99.90;;;;;;5076269;28;20040;-55
2023/11/02 04:01:50;;;;;;;11.98;7.75;;;12.20;99.90;;;;;;5095730;28;20073;-54
2023/11/02 04:04:32;;;;;;;12.98;9.88;;;12.50;99.90;;;;;;5084552;28;20036;-55
2023/11/02 04:07:03;;;;;;;12.55;10.70;;;;;;;;;;5095207;28;20044;-55
2023/11/02 04:10:08;;;;;;;13.95;7.65;;;13.10;99.90;;;;;;5095233;28;20513;-54
2023/11/02 04:12:42;;;;;;;11.90;7.45;;;13.00;99.90;;;;;;5054196;28;20553;-55
2023/11/02 04:15:10;;;;;;;10.77;7.18;;;13.20;99.90;;;;;;5095264;28;20028;-54
2023/11/02 04:17:36;;;;;;;9.07;7.60;;;13.20;99.90;;;;;;5095021;28;20016;-54
2023/11/02 04:20:03;;;;;;;12.25;8.15;;;13.50;99.90;;;;;;5095425;28;20413;-55
2023/11/02 04:22:29;;;;;;;11.30;6.95;;;12.90;99.90;;;;;;5075997;28;20549;-55
2023/11/02 04:24:55;;;;;;;14.68;7.60;;;12.90;99.90;;;;;;5095242;28;20059;-54
2023/11/02 04:27:21;;;;;;;9.57;7.72;;;12.60;99.90;;;;;;5094833;28;20101;-55
2023/11/02 04:29:47;;;;;;;9.70;6.95;;;12.50;99.90;;;;;;5059001;28;20040;-53
2023/11/02 04:32:13;;;;;;;11.25;6.97;;;;;;;;;;5094924;28;20576;-54
2023/11/02 04:34:40;;;;;;;10.07;6.90;;;12.10;99.90;;;;;;5094725;28;20028;-55
2023/11/02 04:37:15;;;;;;;7.78;6.45;;;12.30;99.90;;;;;;5094628;28;20031;-55
2023/11/02 04:39:42;;;;;;;9.80;6.68;;;12.50;99.90;;;;;;5075524;28;20040;-55
2023/11/02 04:42:12;;;;;;;10.75;6.60;;;12.70;99.90;;;;;;5094658;28;20020;-54
2023/11/02 04:44:38;;;;;;;12.30;7.15;;;13.00;99.90;;;;;;5094658;28;20035;-55
2023/11/02 04:47:04;;;;;;;13.40;7.35;;;13.20;99.90;;;;;;5075305;28;20047;-55
2023/11/02 04:49:33;;;;;;;8.60;6.53;;;13.30;99.90;;;;;;5075540;28;20040;-55
2023/11/02 04:52:06;;;;;;;11.95;8.07;;;;;;;;;;5058597;28;20046;-54
2023/11/02 04:54:33;;;;;;;12.38;8.43;;;13.80;99.90;;;;;;5093374;28;20031;-55
2023/11/02 04:57:00;;;;;;;10.95;7.50;;;13.70;99.90;;;;;;5094030;28;20028;-53
2023/11/02 04:59:26;;;;;;;10.68;7.00;;;13.60;99.90;;;;;;5094323;28;20024;-55
2023/11/02 05:01:53;;;;;;;12.38;7.85;;;13.60;99.90;;;;;;5058419;28;20036;-55
2023/11/02 05:04:19;;;;;;;12.85;7.20;;;13.60;99.90;;;;;;5094200;28;20027;-55
2023/11/02 05:06:45;;;;;;;19.65;6.80;;;13.60;99.90;;;;;;5074796;28;20060;-55
2023/11/02 05:09:10;;;;;;;13.40;6.68;;;13.40;99.90;;;;;;5074942;28;20128;-54
2023/11/02 05:11:36;;;;;;;10.63;6.35;;;13.20;99.90;;;;;;5107055;28;20024;-54
2023/11/02 05:14:02;;;;;;;7.35;5.55;;;12.90;99.90;;;;;;5114419;28;20043;-54
2023/11/02 05:16:28;;;;;;;9.02;6.30;;;12.40;99.90;;;;;;5102244;28;20454;-55
2023/11/02 05:18:54;;;;;;;9.10;6.22;;;12.60;99.90;;;;;;5108355;28;20111;-56
2023/11/02 05:21:20;;;;;;;8.80;6.05;;;12.40;99.90;;;;;;5107463;28;20042;-56
2023/11/02 05:23:45;;;;;;;9.55;6.68;;;12.60;99.90;;;;;;5086264;28;20138;-55
2023/11/02 05:26:13;;;;;;;9.80;7.03;;;12.90;99.90;;;;;;5114015;28;20459;-55
2023/11/02 05:28:39;;;;;;;11.10;7.78;;;13.20;99.90;;;;;;5109343;28;20060;-55
2023/11/02 05:31:05;;;;;;;32.75;18.45;;;12.90;99.90;;;;;;5099275;28;20123;-54
2023/11/02 05:33:31;;;;;;;33.28;18.48;;;12.90;99.90;;;;;;5102989;28;20024;-55
2023/11/02 05:35:56;;;;;;;39.30;20.38;;;13.00;99.90;;;;;;5082565;28;20032;-54
2023/11/02 05:38:22;;;;;;;11.27;7.80;;;13.10;99.90;;;;;;5103670;28;20090;-54
2023/11/02 05:40:48;;;;;;;9.73;6.75;;;13.00;99.90;;;;;;5103995;28;20049;-55
2023/11/02 05:43:14;;;;;;;11.45;7.85;;;12.70;99.90;;;;;;5101783;28;20030;-55
2023/11/02 05:45:40;;;;;;;10.93;6.97;;;12.80;99.90;;;;;;5083255;28;20082;-55
2023/11/02 05:48:06;;;;;;;12.45;7.30;;;13.00;99.90;;;;;;5102637;28;20031;-54
2023/11/02 05:50:32;;;;;;;12.15;7.32;;;13.10;99.90;;;;;;5076884;28;20394;-56
2023/11/02 05:52:57;;;;;;;12.50;6.90;;;13.10;99.90;;;;;;5113646;28;20035;-56
2023/11/02 05:55:23;;;;;;;11.77;7.20;;;13.00;99.90;;;;;;5094453;28;20050;-56
2023/11/02 05:57:49;;;;;;;10.82;7.10;;;12.90;99.90;;;;;;5113613;27;20026;-55
2023/11/02 06:00:16;;;;;;;14.07;7.20;;;13.10;99.90;;;;;;5099826;28;20086;-55
2023/11/02 06:02:42;;;;;;;14.55;9.23;;;13.00;99.90;;;;;;5104888;28;20068;-55
2023/11/02 06:05:09;;;;;;;10.07;7.38;;;13.30;99.90;;;;;;5092994;28;20056;-55
2023/11/02 06:07:35;;;;;;;12.68;9.27;;;13.10;99.90;;;;;;5089933;28;20487;-56
2023/11/02 06:10:05;;;;;;;13.75;9.60;;;13.00;99.90;;;;;;5092967;28;20040;-56
2023/11/02 06:12:31;;;;;;;19.85;10.05;;;12.80;99.90;;;;;;5090638;28;20039;-57
2023/11/02 06:14:57;;;;;;;12.70;8.63;;;12.80;99.90;;;;;;5106279;28;20377;-57
2023/11/02 06:17:23;;;;;;;11.85;7.88;;;12.80;99.90;;;;;;5113093;28;20077;-56
2023/11/02 06:19:49;;;;;;;14.77;8.57;;;12.70;99.90;;;;;;5113071;28;20028;-56
2023/11/02 06:22:15;;;;;;;11.57;8.45;;;12.80;99.90;;;;;;5093899;28;20046;-57
2023/11/02 06:24:48;;;;;;;13.93;8.88;;;12.70;99.90;;;;;;5112404;28;20110;-56
2023/11/02 06:27:14;;;;;;;11.43;7.85;;;12.90;99.90;;;;;;5058845;28;20450;-56
2023/11/02 06:29:40;;;;;;;10.30;6.60;;;;;;;;;;5073502;28;20040;-57
2023/11/02 06:32:07;;;;;;;10.00;7.43;;;;;;;;;;5079363;28;20115;-56
2023/11/02 06:34:36;;;;;;;8.88;6.97;;;;;;;;;;5112260;28;20038;-56
2023/11/02 06:37:02;;;;;;;15.82;7.00;;;17.20;99.90;;;;;;5112991;28;20371;-57
2023/11/02 06:39:29;;;;;;;13.25;6.20;;;;;;;;;;5076562;28;20036;-58
2023/11/02 06:41:55;;;;;;;11.05;7.05;;;;;;;;;;5112714;28;20539;-56
2023/11/02 06:44:21;;;;;;;10.75;6.63;;;;;;;;;;5113245;28;20031;-57
2023/11/02 06:46:48;;;;;;;8.25;6.28;;;;;;;;;;5112888;28;20485;-55
2023/11/02 06:49:13;;;;;;;9.73;7.57;;;25.40;99.90;;;;;;5112647;28;20070;-55
2023/11/02 06:51:39;;;;;;;10.25;7.10;;;24.20;96.10;;;;;;5112583;28;20059;-54
2023/11/02 06:54:05;;;;;;;7.70;6.25;;;;;;;;;;5093594;28;20047;-56
2023/11/02 06:56:32;;;;;;;7.05;5.97;;;;;;;;;;5112321;28;20080;-55
2023/11/02 06:58:57;;;;;;;8.38;6.00;;;28.40;99.90;;;;;;5112894;28;20061;-56
2023/11/02 07:01:23;;;;;;;40.55;16.90;;;29.20;93.50;;;;;;5096757;28;20031;-56
2023/11/02 07:03:49;;;;;;;8.10;5.93;;;;;;;;;;5088309;28;20111;-55
2023/11/02 07:06:15;;;;;;;8.00;5.60;;;;;;;;;;5103293;28;20628;-55
2023/11/02 07:08:41;;;;;;;8.60;5.68;;;;;;;;;;5112261;28;20031;-57
2023/11/02 07:11:07;;;;;;;13.98;8.40;;;32.00;86.90;;;;;;5107733;28;20015;-57
2023/11/02 07:13:33;;;;;;;9.15;7.20;;;;;;;;;;5101812;28;20024;-57
2023/11/02 07:15:59;;;;;;;9.07;7.28;;;;;;;;;;5095306;28;20597;-55
2023/11/02 07:18:26;;;;;;;10.55;7.45;;;;;;;;;;5072576;28;20093;-55
2023/11/02 07:20:51;;;;;;;8.32;7.25;;;29.70;94.80;;;;;;5091800;28;20389;-55
2023/11/02 07:23:17;;;;;;;11.45;6.60;;;29.40;84.20;;;;;;5092016;28;20028;-55
2023/11/02 07:25:43;;;;;;;9.77;7.03;;;28.10;84.80;;;;;;5091713;28;20028;-55
2023/11/02 07:28:09;;;;;;;9.25;6.68;;;28.00;85.30;;;;;;5072860;28;20032;-55
2023/11/02 07:30:35;;;;;;;11.05;8.23;;;;;;;;;;5072795;28;20028;-56
2023/11/02 07:33:01;;;;;;;8.85;7.03;;;31.90;93.50;;;;;;5091925;28;20077;-56
2023/11/02 07:35:27;;;;;;;10.07;6.38;;;33.50;89.10;;;;;;5072815;28;20445;-55
2023/11/02 07:37:53;;;;;;;9.10;6.53;;;33.60;96.70;;;;;;5072776;28;20656;-54
2023/11/02 07:40:19;;;;;;;11.95;6.05;;;33.10;81.10;;;;;;5091749;28;20032;-55
2023/11/02 07:42:45;;;;;;;6.57;5.63;;;32.90;79.90;;;;;;5111009;28;20032;-55
2023/11/02 07:45:11;;;;;;;6.78;5.63;;;;;;;;;;5112184;28;20027;-55
2023/11/02 07:47:37;;;;;;;5.93;5.30;;;;;;;;;;5111781;28;20040;-55
2023/11/02 07:50:04;;;;;;;11.55;7.07;;;;;;;;;;5112321;28;20051;-55
2023/11/02 07:52:30;;;;;;;9.07;7.18;;;32.40;91.20;;;;;;5104631;28;20024;-55
2023/11/02 07:54:59;;;;;;;8.00;6.03;;;34.00;80.20;;;;;;5072602;28;20516;-55
2023/11/02 07:57:25;;;;;;;7.68;5.25;;;;;;;;;;5091092;28;20032;-56
2023/11/02 07:59:52;;;;;;;7.43;5.05;;;35.50;96.10;;;;;;5072511;28;20043;-55
2023/11/02 08:02:18;;;;;;;7.32;5.60;;;34.80;89.10;;;;;;5072747;28;20067;-56
2023/11/02 08:04:44;;;;;;;8.93;6.00;;;;;;;;;;5091428;28;20781;-55
2023/11/02 08:07:10;;;;;;;7.35;5.55;;;;;;;;;;5091508;28;20094;-55
2023/11/02 08:09:37;;;;;;;5.93;4.78;;;;;;;;;;5091193;28;20016;-55
2023/11/02 08:12:08;;;;;;;6.90;5.60;;;36.10;93.30;;;;;;5095678;28;20069;-55
2023/11/02 08:14:35;;;;;;;5.40;4.90;;;;;;;;;;5098468;28;20039;-56
2023/11/02 08:17:03;;;;;;;11.05;8.95;;;;;;;;;;5100998;28;20035;-56
2023/11/02 08:19:29;;;;;;;8.80;5.40;;;36.70;74.30;;;;;;5101921;28;20024;-56
2023/11/02 08:21:56;;;;;;;10.70;7.97;;;;;;;;;;5100519;28;20111;-56
2023/11/02 08:24:22;;;;;;;6.82;5.90;;;;;;;;;;5102301;28;20032;-55
2023/11/02 08:26:48;;;;;;;6.63;5.70;;;;;;;;;;5097475;28;20505;-55
2023/11/02 08:29:14;;;;;;;6.70;5.07;;;36.50;73.60;;;;;;5110681;28;20051;-55
2023/11/02 08:31:40;;;;;;;8.73;5.30;;;;;;;;;;5075103;28;20475;-55
2023/11/02 08:34:06;;;;;;;8.30;6.90;;;34.30;72.10;;;;;;5091535;28;20040;-55
2023/11/02 08:36:31;;;;;;;5.47;4.35;;;35.00;73.80;;;;;;5049416;28;20036;-56
2023/11/02 08:38:58;;;;;;;7.80;5.28;;;34.80;73.10;;;;;;5082901;28;20480;-56
2023/11/02 08:41:30;;;;;;;5.05;4.20;;;;;;;;;;5080897;28;20495;-56
2023/11/02 08:43:58;;;;;;;5.88;5.10;;;;;;;;;;5082371;28;20033;-55
2023/11/02 08:46:25;;;;;;;12.43;11.43;;;36.60;71.50;;;;;;5082214;28;20116;-57
2023/11/02 08:48:54;;;;;;;3.90;3.40;;;;;;;;;;5074370;28;20028;-56
2023/11/02 08:51:23;;;;;;;7.57;6.70;;;34.20;69.60;;;;;;5077062;28;20039;-56
2023/11/02 08:53:49;;;;;;;4.78;4.20;;;;;;;;;;5083454;28;20087;-55
2023/11/02 08:56:15;;;;;;;7.78;4.18;;;35.40;72.80;;;;;;5078909;28;20052;-56
2023/11/02 08:58:54;;;;;;;8.73;7.53;;;35.20;78.60;;;;;;5081206;28;20074;-55
2023/11/02 09:01:24;;;;;;;4.38;3.85;;;34.50;69.60;;;;;;5089645;28;20044;-56
2023/11/02 09:03:57;;;;;;;4.07;3.67;;;;;;;;;;5106878;28;20047;-55
2023/11/02 09:06:24;;;;;;;4.10;3.70;;;33.10;69.50;;;;;;5114863;28;20051;-55
2023/11/02 09:08:51;;;;;;;6.05;4.57;;;;;;;;;;5114065;28;20038;-56
2023/11/02 09:11:18;;;;;;;7.30;5.65;;;;;;;;;;5095055;28;20031;-56
2023/11/02 09:13:44;;;;;;;5.03;3.83;;;35.00;71.00;;;;;;5114294;28;20035;-56
2023/11/02 09:16:10;;;;;;;5.45;4.95;;;34.10;69.70;;;;;;5114503;28;20110;-55
2023/11/02 09:18:38;;;;;;;10.02;5.88;;;32.60;69.50;;;;;;5114561;28;20397;-55
2023/11/02 09:21:04;;;;;;;7.72;5.03;;;32.80;70.50;;;;;;5095090;28;20058;-56
2023/11/02 09:23:32;;;;;;;6.90;6.20;;;;;;;;;;5108138;28;20356;-55
2023/11/02 09:25:58;;;;;;;7.40;4.78;;;;;;;;;;5093641;28;20072;-55
2023/11/02 09:28:25;;;;;;;15.63;8.10;;;35.70;90.60;;;;;;5093750;28;20070;-56
2023/11/02 09:31:12;;;;;;;6.25;5.03;;;;;;;;;;5091286;28;20447;-56
2023/11/02 09:33:39;;;;;;;6.63;3.70;;;36.20;69.70;;;;;;5091063;28;20126;-55
2023/11/02 09:36:06;;;;;;;4.70;3.03;;;34.90;69.50;;;;;;5090980;28;20032;-56
2023/11/02 09:38:31;;;;;;;4.20;2.70;;;36.00;69.40;;;;;;5057601;28;20044;-55
2023/11/02 09:40:58;;;;;;;4.03;3.60;;;;;;;;;;5090863;28;20043;-56
2023/11/02 09:43:24;;;;;;;5.03;3.30;;;36.20;68.00;;;;;;5091220;28;20059;-55
2023/11/02 09:45:50;;;;;;;4.18;3.05;;;35.40;68.40;;;;;;5090735;28;20039;-56
2023/11/02 09:48:16;;;;;;;8.00;4.70;;;35.40;67.40;;;;;;5057336;28;20107;-55
2023/11/02 09:50:42;;;;;;;3.42;2.63;;;34.90;68.10;;;;;;5056923;28;20068;-56
2023/11/02 09:53:08;;;;;;;3.70;3.13;;;34.80;68.90;;;;;;5090829;28;20024;-56
2023/11/02 09:55:38;;;;;;;3.42;2.55;;;34.90;68.70;;;;;;5090890;28;20415;-54
2023/11/02 09:58:06;;;;;;;3.30;2.95;;;35.50;70.00;;;;;;5090803;28;20403;-55
2023/11/02 10:00:32;;;;;;;4.18;2.65;;;34.10;68.00;;;;;;5090726;28;20036;-56
2023/11/02 10:02:58;;;;;;;3.17;2.85;;;34.50;68.90;;;;;;5092873;28;20036;-55
2023/11/02 10:05:24;;;;;;;2.67;2.33;;;;;;;;;;5092933;28;20299;-55
2023/11/02 10:07:50;;;;;;;5.80;3.05;;;36.20;67.90;;;;;;5092908;28;20036;-56
2023/11/02 10:10:17;;;;;;;6.13;4.70;;;;;;;;;;5043800;28;20036;-55
2023/11/02 10:12:43;;;;;;;7.68;4.63;;;36.70;70.30;;;;;;5092577;28;20464;-55
2023/11/02 10:15:11;;;;;;;6.88;5.55;;;36.70;71.30;;;;;;5092814;28;20027;-56
2023/11/02 10:17:38;;;;;;;7.88;5.13;;;35.80;71.60;;;;;;5100317;28;20031;-55
2023/11/02 10:20:17;;;;;;;9.38;5.72;;;35.70;71.40;;;;;;5098906;28;20036;-56
2023/11/02 10:22:56;;;;;;;7.45;4.68;;;36.00;71.70;;;;;;5092839;28;20046;-56
2023/11/02 10:25:22;;;;;;;9.90;4.10;;;36.50;71.60;;;;;;5106672;28;20470;-55
2023/11/02 10:27:50;;;;;;;7.07;5.13;;;36.50;71.50;;;;;;5112801;28;20044;-56
2023/11/02 10:30:17;;;;;;;6.80;5.45;;;35.10;70.40;;;;;;5109693;28;20039;-55
2023/11/02 10:32:42;;;;;;;5.95;4.20;;;35.70;71.40;;;;;;5098285;28;20062;-55
2023/11/02 10:35:09;;;;;;;11.82;6.00;;;35.50;71.20;;;;;;5092320;28;20036;-55
2023/11/02 10:37:36;;;;;;;7.00;4.22;;;35.00;71.30;;;;;;5111404;28;20374;-55
2023/11/02 10:40:03;;;;;;;9.45;5.40;;;35.30;73.80;;;;;;5112944;28;20023;-55
2023/11/02 10:42:29;;;;;;;9.00;4.93;;;34.80;71.20;;;;;;5112668;28;20024;-54
2023/11/02 10:44:56;;;;;;;8.30;4.32;;;34.10;71.10;;;;;;5109320;28;20097;-55
2023/11/02 10:47:29;;;;;;;7.43;4.60;;;34.60;71.50;;;;;;5105040;28;20043;-55
2023/11/02 10:49:56;;;;;;;12.68;6.03;;;;;;;;;;5102077;28;20111;-55
2023/11/02 10:52:40;;;;;;;7.57;4.38;;;;;;;;;;5110956;28;20459;-54
2023/11/02 10:55:14;;;;;;;8.70;3.63;;;;;;;;;;5112540;28;20032;-55
2023/11/02 10:57:41;;;;;;;7.72;4.28;;;;;;;;;;5112615;28;20382;-54
2023/11/02 11:00:08;;;;;;;9.02;4.97;;;30.70;71.90;;;;;;5112432;28;20057;-54
2023/11/02 11:02:39;;;;;;;15.63;5.03;;;;;;;;;;5093122;28;20157;-54
2023/11/02 11:05:05;;;;;;;4.55;3.47;;;31.70;72.40;;;;;;5112464;28;20043;-54
2023/11/02 11:07:36;;;;;;;6.35;3.35;;;31.70;72.30;;;;;;5112449;28;20039;-55
2023/11/02 11:10:03;;;;;;;5.90;3.13;;;31.00;71.60;;;;;;5105365;28;20043;-55
2023/11/02 11:12:30;;;;;;;5.35;3.58;;;;;;;;;;5062187;28;20032;-55
2023/11/02 11:14:59;;;;;;;6.35;3.25;;;32.40;90.70;;;;;;5092242;28;20023;-54
2023/11/02 11:17:26;;;;;;;4.30;3.00;;;;;;;;;;5089817;28;20064;-54
2023/11/02 11:19:52;;;;;;;4.15;2.70;;;32.90;71.80;;;;;;5091908;28;20441;-55
2023/11/02 11:22:25;;;;;;;3.90;2.42;;;32.10;71.40;;;;;;5091984;28;20073;-55
2023/11/02 11:24:56;;;;;;;4.15;2.70;;;32.10;71.70;;;;;;5089778;28;20032;-54
2023/11/02 11:27:32;;;;;;;3.83;2.57;;;;;;;;;;5091986;28;20479;-55
2023/11/02 11:29:59;;;;;;;5.82;2.88;;;32.60;70.50;;;;;;5091569;28;20261;-55
2023/11/02 11:32:25;;;;;;;3.65;2.70;;;33.00;70.90;;;;;;5091662;28;20035;-54
2023/11/02 11:34:54;;;;;;;5.93;2.67;;;32.50;71.10;;;;;;5089659;28;20032;-55
2023/11/02 11:37:34;;;;;;;5.35;3.05;;;;;;;;;;5092252;28;20055;-54
2023/11/02 11:40:05;;;;;;;3.08;2.15;;;;;;;;;;5091687;28;20475;-55
2023/11/02 11:42:50;;;;;;;;;;;32.10;94.70;;;;;;5092194;28;20056;-54
2023/11/02 11:45:34;;;;;;;5.35;2.80;;;32.20;92.20;;;;;;5091912;28;19910;-54
2023/11/02 11:48:10;;;;;;;2.95;2.25;;;32.40;88.20;;;;;;5089439;28;20044;-54
2023/11/02 11:50:36;;;;;;;5.88;2.35;;;32.30;88.90;;;;;;5091566;28;20032;-54
2023/11/02 11:53:25;;;;;;;3.10;2.03;;;;;;;;;;5091635;28;20034;-55
2023/11/02 11:55:55;;;;;;;8.77;3.00;;;30.80;98.10;;;;;;5091602;28;20024;-54
2023/11/02 11:58:40;;;;;;;5.63;2.40;;;31.30;73.00;;;;;;5096491;28;20028;-56
2023/11/02 12:01:06;;;;;;;4.30;2.22;;;;;;;;;;5101581;28;20044;-54
2023/11/02 12:03:34;;;;;;;5.82;2.70;;;;;;;;;;5101400;28;20070;-54
2023/11/02 12:06:02;;;;;;;4.00;2.10;;;29.90;82.50;;;;;;5104600;28;20051;-54
2023/11/02 12:08:29;;;;;;;12.82;2.13;;;;;;;;;;5109804;28;20544;-54
2023/11/02 12:10:58;;;;;;;4.88;1.75;;;;;;;;;;5115768;28;20474;-54
2023/11/02 12:13:25;;;;;;;7.85;2.40;;;;;;;;;;5115648;28;20145;-54
2023/11/02 12:15:59;;;;;;;4.25;1.90;;;;;;;;;;5088906;28;20035;-54
2023/11/02 12:18:29;;;;;;;3.83;1.48;;;;;;;;;;5112752;28;20034;-54
2023/11/02 12:20:57;;;;;;;3.38;1.60;;;30.50;97.20;;;;;;5115097;28;20024;-55
2023/11/02 12:23:36;;;;;;;3.03;1.80;;;;;;;;;;5108292;28;20039;-54
2023/11/02 12:26:07;;;;;;;7.95;4.15;;;30.30;92.50;;;;;;5109228;28;20043;-54
2023/11/02 12:28:47;;;;;;;4.13;2.35;;;30.00;72.00;;;;;;5114189;28;20024;-54
2023/11/02 12:31:14;;;;;;;4.22;2.15;;;;;;;;;;5115256;28;20671;-54
2023/11/02 12:33:40;;;;;;;2.72;1.85;;;;;;;;;;5114911;28;20068;-55
2023/11/02 12:36:07;;;;;;;3.75;1.90;;;29.30;71.30;;;;;;5103364;28;20024;-54
2023/11/02 12:38:48;;;;;;;8.20;2.20;;;29.60;82.50;;;;;;5105004;28;20092;-54
2023/11/02 12:41:27;;;;;;;4.68;2.17;;;29.90;79.60;;;;;;5084722;28;20028;-54
2023/11/02 12:44:10;;;;;;;4.65;2.25;;;29.80;79.80;;;;;;5086966;28;20024;-54
2023/11/02 12:46:40;;;;;;;3.15;2.00;;;29.50;75.10;;;;;;5104247;28;20063;-54
2023/11/02 12:49:18;;;;;;;4.63;2.50;;;;;;;;;;5083778;28;20093;-54
2023/11/02 12:52:05;;;;;;;4.35;2.70;;;29.00;73.70;;;;;;5055719;28;20040;-53
2023/11/02 12:54:31;;;;;;;6.32;2.53;;;;;;;;;;5069410;28;20415;-54
2023/11/02 12:57:08;;;;;;;4.60;3.08;;;;;;;;;;5060943;28;20041;-54
2023/11/02 12:59:43;;;;;;;6.10;3.28;;;;;;;;;;5060616;28;20035;-54
2023/11/02 13:02:13;;;;;;;8.20;4.20;;;28.80;75.70;;;;;;5060550;28;20045;-53
2023/11/02 13:04:55;;;;;;;5.95;3.35;;;28.70;77.10;;;;;;5051495;28;20036;-53
2023/11/02 13:07:27;;;;;;;6.93;2.92;;;28.60;78.70;;;;;;5056229;28;20053;-54
2023/11/02 13:10:16;;;;;;;3.90;2.50;;;28.60;78.10;;;;;;5059230;28;20043;-53
2023/11/02 13:12:44;;;;;;;3.30;2.33;;;;;;;;;;5054278;28;20507;-54
2023/11/02 13:15:11;;;;;;;6.25;2.38;;;28.70;76.40;;;;;;5070197;28;20418;-54
2023/11/02 13:17:43;;;;;;;6.03;2.55;;;28.70;75.90;;;;;;5070648;28;20046;-54
2023/11/02 13:20:10;;;;;;;3.10;2.17;;;28.80;76.60;;;;;;5062506;28;20119;-54
2023/11/02 13:22:37;;;;;;;5.03;1.63;;;;;;;;;;5068101;28;20149;-54
2023/11/02 13:25:05;;;;;;;2.70;1.60;;;;;;;;;;5094090;28;20039;-54
2023/11/02 13:27:32;;;;;;;2.42;1.65;;;27.60;94.60;;;;;;5094293;28;20032;-54
2023/11/02 13:29:59;;;;;;;2.75;1.67;;;27.70;74.90;;;;;;5106871;27;20036;-55
2023/11/02 13:32:25;;;;;;;2.60;1.60;;;;;;;;;;5103235;28;20061;-54
2023/11/02 13:34:51;;;;;;;3.17;1.67;;;26.80;91.60;;;;;;5102875;28;20011;-54